Time;durP1;ratioP1;P1;durP2;ratioP2;P2;SDS_P1;SDS_P2;PMS_P1;PMS_P2;Temp;Humidity;BMP_temperature;BMP_pressure;BME280_temperature;BME280_humidity;BME280_pressure;Samples;Min_cycle;Max_cycle;Signal;HPM_P1;HPM_P2
2021/03/16 00:09:41;;;;;;;20.80;6.30;;;3.90;99.90;;;;;;6705071;88;20198;-76
2021/03/16 00:19:44;;;;;;;18.58;4.57;;;4.00;99.90;;;;;;6705202;88;20202;-77
2021/03/16 00:29:45;;;;;;;28.27;3.83;;;4.50;99.90;;;;;;6703919;88;20183;-77
2021/03/16 00:39:45;;;;;;;13.95;2.83;;;4.60;99.90;;;;;;6702988;88;20328;-77
2021/03/16 00:49:46;;;;;;;21.67;3.55;;;4.70;99.90;;;;;;6704696;88;20835;-76
2021/03/16 00:59:46;;;;;;;23.35;3.62;;;4.80;99.90;;;;;;6703566;88;20183;-77
2021/03/16 01:09:47;;;;;;;16.55;3.33;;;4.80;99.90;;;;;;6703933;88;20752;-77
2021/03/16 01:19:48;;;;;;;22.42;3.83;;;4.80;99.90;;;;;;6704624;88;20190;-77
2021/03/16 01:29:48;;;;;;;16.42;3.12;;;4.90;99.90;;;;;;6705541;88;20207;-77
2021/03/16 01:39:49;;;;;;;22.65;2.90;;;5.00;99.90;;;;;;6696812;88;20380;-77
2021/03/16 01:49:49;;;;;;;16.25;2.70;;;4.90;99.90;;;;;;6704555;88;20294;-77
2021/03/16 01:59:50;;;;;;;13.75;2.50;;;4.90;99.90;;;;;;6705936;88;20721;-77
2021/03/16 02:10:16;;;;;;;13.57;1.83;;;5.10;99.90;;;;;;6705738;88;20191;-77
2021/03/16 02:20:24;;;;;;;14.98;2.58;;;5.00;99.90;;;;;;6694960;88;20216;-77
2021/03/16 02:30:27;;;;;;;14.87;2.80;;;4.90;99.90;;;;;;6704240;88;20194;-77
2021/03/16 02:40:29;;;;;;;13.43;2.62;;;4.70;99.90;;;;;;6714129;88;20203;-77
2021/03/16 02:50:30;;;;;;;14.65;2.37;;;4.70;99.90;;;;;;6689994;88;20216;-77
2021/03/16 03:00:32;;;;;;;13.77;2.65;;;4.80;99.90;;;;;;6696611;88;20323;-76
2021/03/16 03:10:32;;;;;;;15.15;2.15;;;4.80;99.90;;;;;;6707781;88;20193;-77
2021/03/16 03:20:34;;;;;;;16.42;2.55;;;4.80;99.90;;;;;;6699832;88;20324;-77
2021/03/16 03:30:36;;;;;;;15.05;3.80;;;4.80;99.90;;;;;;6705501;88;20187;-76
2021/03/16 03:40:37;;;;;;;16.23;3.95;;;4.90;99.90;;;;;;6705487;88;20259;-76
2021/03/16 03:50:40;;;;;;;15.95;2.62;;;4.90;99.90;;;;;;6704823;88;20232;-75
2021/03/16 04:00:41;;;;;;;18.02;3.17;;;4.90;99.90;;;;;;6709104;88;20229;-76
2021/03/16 04:10:41;;;;;;;23.27;3.45;;;4.90;99.90;;;;;;6705058;88;20251;-75
2021/03/16 04:20:45;;;;;;;11.43;2.90;;;5.00;99.90;;;;;;6704463;88;20707;-76
2021/03/16 04:30:46;;;;;;;12.60;3.30;;;4.90;99.90;;;;;;6687520;88;20216;-77
2021/03/16 04:40:46;;;;;;;15.07;3.08;;;5.00;99.90;;;;;;6688056;77;20191;-76
2021/03/16 04:50:47;;;;;;;20.10;4.32;;;5.10;99.90;;;;;;6668983;89;20228;-76
2021/03/16 05:00:47;;;;;;;16.83;3.37;;;5.10;99.90;;;;;;6669029;89;20183;-76
2021/03/16 05:10:48;;;;;;;16.27;2.75;;;5.00;99.90;;;;;;6671234;89;20184;-75
2021/03/16 05:20:49;;;;;;;15.13;2.33;;;5.00;99.90;;;;;;6675397;89;20224;-75
2021/03/16 05:30:50;;;;;;;13.10;2.50;;;4.90;99.90;;;;;;6677434;89;20704;-76
2021/03/16 05:40:50;;;;;;;16.12;2.83;;;4.90;99.90;;;;;;6676475;89;20215;-76
2021/03/16 05:50:52;;;;;;;10.30;2.40;;;5.00;99.90;;;;;;6673740;89;20333;-76
2021/03/16 06:00:52;;;;;;;12.30;2.78;;;4.90;99.90;;;;;;6669232;88;20278;-76
2021/03/16 06:10:53;;;;;;;13.15;2.70;;;5.00;99.90;;;;;;6672151;88;20399;-76
2021/03/16 06:21:02;;;;;;;18.80;3.50;;;5.00;99.90;;;;;;6670160;89;20266;-75
2021/03/16 06:31:03;;;;;;;14.35;2.65;;;5.10;99.90;;;;;;6668894;89;20710;-75
2021/03/16 06:41:24;;;;;;;19.10;3.12;;;5.10;99.90;;;;;;6663535;89;20199;-75
2021/03/16 06:51:30;;;;;;;19.60;2.95;;;5.20;99.90;;;;;;6669770;89;20224;-76
2021/03/16 07:01:32;;;;;;;17.33;2.70;;;5.20;99.90;;;;;;6673464;89;20218;-75
2021/03/16 07:11:35;;;;;;;11.63;2.30;;;5.30;99.90;;;;;;6674060;89;20311;-75
2021/03/16 07:21:40;;;;;;;11.52;2.67;;;5.40;99.90;;;;;;6678262;89;20269;-75
2021/03/16 07:31:43;;;;;;;12.23;2.67;;;5.40;99.90;;;;;;6675148;88;20241;-75
2021/03/16 07:41:43;;;;;;;17.12;3.83;;;5.50;99.90;;;;;;6674825;88;20203;-75
2021/03/16 07:51:45;;;;;;;20.08;3.50;;;5.80;99.90;;;;;;6672369;89;20195;-75
2021/03/16 08:01:49;;;;;;;13.98;3.45;;;5.80;99.90;;;;;;6671222;89;20717;-76
2021/03/16 08:11:49;;;;;;;16.15;3.22;;;5.90;99.90;;;;;;6673398;88;21160;-76
2021/03/16 08:21:58;;;;;;;14.87;3.03;;;6.30;99.90;;;;;;6670806;89;20281;-77
2021/03/16 08:31:59;;;;;;;17.67;3.58;;;6.50;99.90;;;;;;6670218;89;20914;-76
2021/03/16 08:42:04;;;;;;;14.30;3.67;;;6.40;99.90;;;;;;6667139;89;20233;-76
2021/03/16 08:52:13;;;;;;;16.80;3.50;;;6.90;99.90;;;;;;6666293;89;20208;-76
2021/03/16 09:02:22;;;;;;;10.35;3.70;;;7.00;99.90;;;;;;6665156;89;20205;-75
2021/03/16 09:12:27;;;;;;;12.00;3.80;;;7.00;99.90;;;;;;6667460;89;20288;-76
2021/03/16 09:22:28;;;;;;;17.77;4.05;;;7.00;99.90;;;;;;6670275;89;20623;-76
2021/03/16 09:32:28;;;;;;;16.35;3.67;;;7.40;99.90;;;;;;6666792;89;20209;-76
2021/03/16 09:42:44;;;;;;;14.77;4.05;;;8.20;99.90;;;;;;6658010;89;20278;-76
2021/03/16 09:53:06;;;;;;;13.70;4.70;;;8.20;99.90;;;;;;6659511;89;20644;-74
2021/03/16 10:03:08;;;;;;;10.02;3.10;;;8.00;99.90;;;;;;6657766;89;20200;-74
2021/03/16 10:13:10;;;;;;;12.25;3.53;;;7.70;99.90;;;;;;6656309;89;20702;-75
2021/03/16 10:23:15;;;;;;;11.57;3.47;;;9.10;99.90;;;;;;6652909;89;20267;-74
2021/03/16 10:33:16;;;;;;;12.13;2.97;;;10.60;99.90;;;;;;6649254;88;20224;-74
2021/03/16 10:43:16;;;;;;;10.57;2.97;;;9.40;99.90;;;;;;6669487;89;20259;-75
2021/03/16 10:53:58;;;;;;;8.30;2.97;;;9.50;99.90;;;;;;6679501;77;20182;-75
2021/03/16 11:03:58;;;;;;;8.60;3.70;;;10.10;99.90;;;;;;6724034;88;20239;-76
2021/03/16 11:13:59;;;;;;;11.95;3.00;;;9.60;99.90;;;;;;6722778;88;20209;-75
2021/03/16 11:23:59;;;;;;;8.55;2.90;;;10.40;99.90;;;;;;6721102;88;20227;-76
2021/03/16 11:34:00;;;;;;;6.87;2.80;;;10.20;99.90;;;;;;6718708;88;20203;-75
2021/03/16 11:44:00;;;;;;;11.65;3.37;;;7.50;99.90;;;;;;6722367;88;20248;-77
2021/03/16 11:54:01;;;;;;;7.78;2.50;;;7.00;99.90;;;;;;6722392;88;20197;-75
2021/03/16 12:04:01;;;;;;;8.93;1.83;;;8.00;99.90;;;;;;6723468;88;20255;-75
2021/03/16 12:14:02;;;;;;;4.20;1.80;;;8.50;99.90;;;;;;6720179;88;20199;-78
2021/03/16 12:24:03;;;;;;;5.93;2.00;;;8.60;99.90;;;;;;6721271;88;20198;-76
2021/03/16 12:34:04;;;;;;;7.37;2.33;;;9.60;99.90;;;;;;6715827;88;20348;-76
2021/03/16 12:44:05;;;;;;;4.87;1.65;;;10.60;99.90;;;;;;6715919;88;20221;-76
2021/03/16 12:54:06;;;;;;;6.07;2.00;;;10.80;99.90;;;;;;6714387;88;20272;-74
2021/03/16 13:04:06;;;;;;;6.97;1.50;;;11.70;99.90;;;;;;6716075;88;20215;-77
2021/03/16 13:14:07;;;;;;;6.47;2.17;;;12.80;99.90;;;;;;6720368;88;20579;-77
2021/03/16 13:24:08;;;;;;;10.83;2.60;;;11.10;99.90;;;;;;6720229;88;20250;-77
2021/03/16 13:34:09;;;;;;;9.02;3.33;;;11.20;99.90;;;;;;6723283;88;20495;-77
2021/03/16 13:44:09;;;;;;;7.60;3.12;;;9.50;99.90;;;;;;6721279;88;20208;-77
2021/03/16 13:54:10;;;;;;;9.20;3.00;;;6.20;99.90;;;;;;6723220;88;20200;-77
2021/03/16 14:04:11;;;;;;;8.75;3.70;;;5.90;99.90;;;;;;6722520;88;20963;-77
2021/03/16 14:14:11;;;;;;;12.45;2.47;;;5.80;99.90;;;;;;6722300;88;20280;-79
2021/03/16 14:24:12;;;;;;;6.18;2.35;;;6.00;99.90;;;;;;6722839;88;20193;-79
2021/03/16 14:34:12;;;;;;;5.05;2.28;;;5.90;99.90;;;;;;6722646;88;20205;-78
2021/03/16 14:44:13;;;;;;;4.97;2.07;;;6.40;99.90;;;;;;6723218;88;20337;-77
2021/03/16 14:54:13;;;;;;;4.00;1.60;;;7.00;99.90;;;;;;6705231;88;20525;-77
2021/03/16 15:04:14;;;;;;;3.95;1.95;;;7.30;99.90;;;;;;6701939;88;20312;-77
2021/03/16 15:14:15;;;;;;;4.37;2.20;;;7.20;99.90;;;;;;6706145;88;20289;-77
2021/03/16 15:24:15;;;;;;;4.43;1.77;;;7.20;99.90;;;;;;6705044;88;20215;-76
2021/03/16 15:34:16;;;;;;;2.78;1.60;;;7.10;99.90;;;;;;6708493;88;20232;-76
2021/03/16 15:44:16;;;;;;;6.07;2.10;;;6.80;99.90;;;;;;6720112;88;20188;-77
2021/03/16 15:54:17;;;;;;;3.95;2.30;;;6.80;99.90;;;;;;6720084;88;20196;-77
2021/03/16 16:04:18;;;;;;;3.53;1.83;;;6.90;99.90;;;;;;6720447;88;20186;-78
2021/03/16 16:14:19;;;;;;;3.55;1.90;;;6.80;99.90;;;;;;6721622;88;20498;-79
2021/03/16 16:24:19;;;;;;;3.58;2.00;;;6.70;99.90;;;;;;6727412;88;20626;-78
2021/03/16 16:34:20;;;;;;;4.30;2.45;;;6.60;99.90;;;;;;6724467;88;20214;-76
2021/03/16 16:44:22;;;;;;;4.10;2.50;;;6.40;99.90;;;;;;6729354;88;20201;-78
2021/03/16 16:54:23;;;;;;;3.45;2.25;;;6.30;99.90;;;;;;6728247;88;20185;-77
2021/03/16 17:04:24;;;;;;;4.90;3.03;;;6.10;99.90;;;;;;6735662;88;20177;-77
2021/03/16 17:14:27;;;;;;;5.37;3.17;;;6.00;99.90;;;;;;6734623;88;20346;-77
2021/03/16 17:24:28;;;;;;;5.05;2.62;;;6.10;99.90;;;;;;6725062;88;20229;-79
2021/03/16 17:34:28;;;;;;;5.00;2.70;;;6.00;99.90;;;;;;6729866;88;20181;-80
2021/03/16 17:44:29;;;;;;;4.62;2.75;;;5.70;99.90;;;;;;6727109;88;20395;-77
2021/03/16 17:54:29;;;;;;;5.82;3.00;;;5.70;99.90;;;;;;6722537;88;20251;-78
2021/03/16 18:04:30;;;;;;;5.68;3.58;;;5.70;99.90;;;;;;6718220;88;20198;-76
2021/03/16 18:14:31;;;;;;;5.55;3.90;;;5.70;99.90;;;;;;6719272;88;20336;-76
2021/03/16 18:24:32;;;;;;;7.43;4.37;;;5.80;99.90;;;;;;6715866;88;20234;-77
2021/03/16 18:34:32;;;;;;;6.72;4.50;;;5.80;99.90;;;;;;6721773;88;20637;-78
2021/03/16 18:44:33;;;;;;;6.60;4.50;;;5.60;99.90;;;;;;6717965;88;20198;-77
2021/03/16 18:54:34;;;;;;;7.20;4.68;;;5.70;99.90;;;;;;6717743;88;20229;-77
2021/03/16 19:04:35;;;;;;;7.85;4.75;;;5.80;99.90;;;;;;6724845;88;20349;-78
2021/03/16 19:14:35;;;;;;;8.93;5.10;;;5.60;99.90;;;;;;6720509;88;21028;-78
2021/03/16 19:24:36;;;;;;;10.55;6.22;;;5.60;99.90;;;;;;6712779;88;20593;-77
2021/03/16 19:34:37;;;;;;;12.40;7.05;;;5.60;99.90;;;;;;6717791;88;20500;-77
2021/03/16 19:44:37;;;;;;;11.18;6.50;;;5.60;99.90;;;;;;6707961;88;20241;-79
2021/03/16 19:54:38;;;;;;;12.27;6.57;;;5.40;99.90;;;;;;6708794;88;20266;-78
2021/03/16 20:04:39;;;;;;;12.95;7.70;;;5.40;99.90;;;;;;6709177;88;20334;-78
2021/03/16 20:14:39;;;;;;;13.60;7.40;;;5.20;99.90;;;;;;6710232;88;20650;-78
2021/03/16 20:24:41;;;;;;;13.57;8.25;;;5.30;99.90;;;;;;6724756;88;21248;-79
2021/03/16 20:34:42;;;;;;;15.85;8.18;;;5.20;99.90;;;;;;6719155;88;20210;-78
2021/03/16 20:44:42;;;;;;;15.80;8.77;;;5.20;99.90;;;;;;6725615;88;20207;-78
2021/03/16 20:54:44;;;;;;;16.23;8.27;;;5.20;99.90;;;;;;6718979;88;20200;-78
2021/03/16 21:04:45;;;;;;;17.30;9.05;;;5.10;99.90;;;;;;6729382;88;20227;-78
2021/03/16 21:14:45;;;;;;;18.62;9.40;;;5.20;99.90;;;;;;6730263;88;20889;-79
2021/03/16 21:24:46;;;;;;;18.62;9.20;;;5.00;99.90;;;;;;6736998;88;20231;-79
2021/03/16 21:34:46;;;;;;;17.87;9.80;;;5.10;99.90;;;;;;6707131;88;20186;-79
2021/03/16 21:44:47;;;;;;;20.10;10.00;;;5.10;99.90;;;;;;6725055;88;20202;-78
2021/03/16 21:54:48;;;;;;;21.33;10.82;;;5.20;99.90;;;;;;6727026;88;20511;-79
2021/03/16 22:04:48;;;;;;;23.23;11.43;;;5.10;99.90;;;;;;6720942;88;20215;-79
2021/03/16 22:14:49;;;;;;;27.55;12.07;;;5.00;99.90;;;;;;6724078;88;20243;-77
2021/03/16 22:24:49;;;;;;;26.02;12.40;;;5.00;99.90;;;;;;6718758;88;20214;-77
2021/03/16 22:34:50;;;;;;;26.90;12.50;;;5.00;99.90;;;;;;6718310;88;20196;-78
2021/03/16 22:44:50;;;;;;;27.45;12.93;;;5.00;99.90;;;;;;6721221;88;20181;-79
2021/03/16 22:54:51;;;;;;;31.58;13.48;;;5.00;99.90;;;;;;6718602;88;20226;-78
2021/03/16 23:04:52;;;;;;;34.93;15.47;;;5.00;99.90;;;;;;6723622;88;20305;-78
2021/03/16 23:14:52;;;;;;;34.78;14.32;;;4.80;99.90;;;;;;6723473;88;20542;-79
2021/03/16 23:24:53;;;;;;;38.17;14.63;;;4.80;99.90;;;;;;6726612;88;20748;-79
2021/03/16 23:34:53;;;;;;;35.72;14.68;;;4.80;99.90;;;;;;6711902;77;21984;-76
2021/03/16 23:44:54;;;;;;;32.20;13.50;;;4.80;99.90;;;;;;6703381;88;20194;-77
2021/03/16 23:54:54;;;;;;;19.30;8.40;;;5.00;99.90;;;;;;6689703;88;20260;-77
